createdAt,value
2023-03-29T00:00:12.733Z,6.95
2023-03-29T00:03:05.769Z,7.57
2023-03-29T00:06:00.180Z,6.65
2023-03-29T00:08:38.539Z,7.45
2023-03-29T00:11:18.621Z,8.63
2023-03-29T00:14:02.395Z,7.97
2023-03-29T00:16:49.244Z,6.60
2023-03-29T00:19:28.393Z,6.22
2023-03-29T00:22:08.794Z,7.00
2023-03-29T00:27:29.405Z,5.32
2023-03-29T00:30:15.075Z,5.93
2023-03-29T00:32:55.697Z,4.45
2023-03-29T00:35:36.257Z,5.00
2023-03-29T00:38:19.897Z,4.15
2023-03-29T00:41:04.389Z,5.50
2023-03-29T00:44:34.133Z,5.22
2023-03-29T00:47:15.725Z,4.90
2023-03-29T00:50:00.245Z,5.35
2023-03-29T00:52:42.609Z,5.57
2023-03-29T00:55:27.842Z,5.32
2023-03-29T00:58:10.267Z,4.95
2023-03-29T01:01:00.260Z,5.40
2023-03-29T01:03:46.683Z,5.13
2023-03-29T01:06:33.389Z,4.78
2023-03-29T01:09:21.130Z,4.57
2023-03-29T01:12:04.651Z,5.97
2023-03-29T01:15:08.663Z,5.63
2023-03-29T01:17:50.981Z,6.10
2023-03-29T01:20:48.594Z,5.40
2023-03-29T01:23:43.866Z,4.50
2023-03-29T01:26:32.879Z,4.95
2023-03-29T01:29:18.325Z,4.65
2023-03-29T01:32:20.599Z,6.00
2023-03-29T01:35:10.555Z,5.50
2023-03-29T01:38:13.793Z,5.72
2023-03-29T01:41:05.678Z,5.65
2023-03-29T01:44:22.891Z,5.97
2023-03-29T01:47:20.990Z,6.95
2023-03-29T01:50:14.792Z,6.50
2023-03-29T01:53:24.957Z,5.85
2023-03-29T01:56:17.811Z,6.55
2023-03-29T01:59:17.295Z,6.13
2023-03-29T02:02:02.670Z,6.13
2023-03-29T02:04:41.895Z,6.43
2023-03-29T02:07:24.526Z,6.00
2023-03-29T02:10:09.343Z,7.30
2023-03-29T02:12:50.834Z,7.68
2023-03-29T02:15:28.421Z,7.07
2023-03-29T02:18:14.735Z,7.18
2023-03-29T02:20:49.295Z,8.18
2023-03-29T02:23:38.986Z,7.10
2023-03-29T02:26:26.038Z,7.18
2023-03-29T02:29:12.675Z,8.82
2023-03-29T02:32:13.388Z,8.55
2023-03-29T02:35:01.980Z,9.88
2023-03-29T02:37:54.561Z,10.95
2023-03-29T02:40:35.750Z,13.93
2023-03-29T02:43:26.381Z,14.73
2023-03-29T02:46:08.753Z,14.13
2023-03-29T02:49:03.394Z,14.55
2023-03-29T02:51:48.340Z,14.23
2023-03-29T02:54:31.090Z,18.92
2023-03-29T02:57:34.670Z,17.57
2023-03-29T03:00:20.157Z,20.95
2023-03-29T03:03:06.260Z,20.10
2023-03-29T03:05:52.660Z,19.77
2023-03-29T03:08:38.993Z,19.10
2023-03-29T03:11:25.076Z,27.50
2023-03-29T03:14:05.882Z,36.13
2023-03-29T03:16:52.987Z,41.00
2023-03-29T03:19:33.979Z,48.22
2023-03-29T03:22:15.394Z,42.33
2023-03-29T03:27:43.707Z,27.67
2023-03-29T03:30:28.221Z,31.50
2023-03-29T03:33:30.672Z,36.90
2023-03-29T03:36:34.543Z,38.00
2023-03-29T03:39:18.675Z,36.92
2023-03-29T03:42:08.356Z,39.45
2023-03-29T03:44:51.906Z,32.67
2023-03-29T03:47:52.211Z,33.90
2023-03-29T03:51:01.644Z,23.48
2023-03-29T03:53:46.828Z,35.60
2023-03-29T03:56:28.367Z,36.25
2023-03-29T03:59:29.842Z,52.13
2023-03-29T04:02:13.597Z,66.78
2023-03-29T04:04:55.755Z,61.83
2023-03-29T04:07:45.116Z,71.95
2023-03-29T04:11:05.996Z,64.25
2023-03-29T04:13:49.978Z,79.25
2023-03-29T04:16:52.801Z,69.97
2023-03-29T04:19:52.229Z,65.75
2023-03-29T04:22:33.442Z,75.07
2023-03-29T04:25:15.168Z,88.00
2023-03-29T04:28:10.616Z,74.05
2023-03-29T04:31:26.922Z,62.25
2023-03-29T04:34:27.414Z,65.28
2023-03-29T04:37:14.615Z,65.03
2023-03-29T04:39:55.596Z,79.53
2023-03-29T04:42:36.169Z,89.85
2023-03-29T04:45:32.404Z,91.38
2023-03-29T04:48:28.652Z,101.90
2023-03-29T04:51:18.402Z,114.78
2023-03-29T04:54:02.991Z,120.72
2023-03-29T04:56:56.475Z,122.93
2023-03-29T04:59:58.579Z,113.70
2023-03-29T05:02:58.685Z,115.68
2023-03-29T05:05:46.065Z,121.78
2023-03-29T05:08:34.888Z,119.55
2023-03-29T05:11:45.002Z,127.40
2023-03-29T05:14:30.974Z,123.55
2023-03-29T05:17:09.311Z,132.18
2023-03-29T05:19:49.858Z,121.85
2023-03-29T05:22:39.941Z,115.88
2023-03-29T05:25:36.521Z,110.75
2023-03-29T05:28:18.496Z,113.40
2023-03-29T05:31:17.269Z,114.10
2023-03-29T05:34:10.412Z,108.38
2023-03-29T05:37:00.598Z,93.82
2023-03-29T05:39:49.397Z,75.65
2023-03-29T05:42:31.608Z,49.67
2023-03-29T05:51:04.816Z,34.53
2023-03-29T05:53:47.822Z,33.58
2023-03-29T05:56:28.701Z,28.55
2023-03-29T05:59:04.375Z,24.40
2023-03-29T06:04:44.935Z,23.10
2023-03-29T06:07:37.160Z,21.30
2023-03-29T06:10:46.292Z,17.00
2023-03-29T06:13:51.844Z,13.43
2023-03-29T06:16:30.760Z,13.32
2023-03-29T06:19:06.944Z,12.93
2023-03-29T06:21:54.441Z,11.02
2023-03-29T06:24:42.586Z,9.30
2023-03-29T06:27:46.842Z,6.22
2023-03-29T06:30:24.661Z,6.50
2023-03-29T06:33:14.395Z,5.75
2023-03-29T06:36:27.710Z,5.47
2023-03-29T06:39:11.914Z,6.35
2023-03-29T06:42:21.254Z,6.57
2023-03-29T06:45:29.504Z,7.57
2023-03-29T06:48:15.554Z,8.15
2023-03-29T06:50:54.677Z,8.43
2023-03-29T06:53:43.441Z,9.20
2023-03-29T06:56:29.970Z,7.65
2023-03-29T06:59:20.451Z,7.85
2023-03-29T07:02:24.516Z,8.00
2023-03-29T07:05:11.519Z,8.40
2023-03-29T07:08:06.190Z,7.95
2023-03-29T07:11:02.160Z,6.22
2023-03-29T07:13:49.614Z,7.15
2023-03-29T07:16:28.743Z,7.63
2023-03-29T07:19:22.918Z,6.28
2023-03-29T07:22:08.294Z,6.07
2023-03-29T07:25:00.026Z,5.97
2023-03-29T07:27:43.215Z,5.50
2023-03-29T07:30:33.278Z,5.70
2023-03-29T07:33:45.669Z,6.05
2023-03-29T07:36:26.648Z,5.85
2023-03-29T07:39:13.009Z,5.68
2023-03-29T07:42:13.946Z,5.38
2023-03-29T07:44:55.876Z,5.38
2023-03-29T07:47:40.842Z,5.55
2023-03-29T07:50:27.617Z,5.18
2023-03-29T07:53:07.792Z,4.28
2023-03-29T07:55:54.465Z,5.65
2023-03-29T07:59:01.346Z,4.90
2023-03-29T08:01:50.304Z,5.28
2023-03-29T08:04:41.860Z,4.38
2023-03-29T08:07:26.383Z,5.53
2023-03-29T08:10:07.130Z,5.22
2023-03-29T08:13:08.534Z,4.72
2023-03-29T08:16:00.351Z,6.03
2023-03-29T08:18:49.455Z,5.07
2023-03-29T08:21:34.419Z,4.55
2023-03-29T08:24:23.267Z,4.85
2023-03-29T08:27:07.679Z,4.80
2023-03-29T08:30:00.569Z,5.53
2023-03-29T08:32:54.880Z,4.63
2023-03-29T08:35:38.492Z,4.72
2023-03-29T08:38:29.191Z,4.55
2023-03-29T08:41:26.599Z,4.70
2023-03-29T08:44:20.351Z,4.35
2023-03-29T08:47:51.626Z,4.57
2023-03-29T08:50:52.760Z,4.55
2023-03-29T08:53:39.605Z,3.80
2023-03-29T08:56:46.792Z,3.40
2023-03-29T08:59:47.541Z,3.40
2023-03-29T09:02:30.782Z,3.58
2023-03-29T09:05:39.110Z,3.40
2023-03-29T09:08:30.084Z,7.47
2023-03-29T09:11:33.584Z,8.32
2023-03-29T09:14:28.987Z,3.38
2023-03-29T09:17:37.199Z,11.55
2023-03-29T09:20:37.564Z,3.55
2023-03-29T09:23:40.235Z,12.98
2023-03-29T09:27:34.307Z,4.90
2023-03-29T09:30:36.081Z,3.47
2023-03-29T09:33:25.036Z,3.33
2023-03-29T09:36:38.858Z,3.53
2023-03-29T09:39:28.020Z,3.42
2023-03-29T09:42:30.166Z,4.47
2023-03-29T09:45:11.602Z,4.40
2023-03-29T09:48:00.687Z,3.28
2023-03-29T09:50:50.142Z,3.70
2023-03-29T09:53:36.358Z,3.65
2023-03-29T09:56:40.770Z,3.90
2023-03-29T09:59:27.270Z,3.63
2023-03-29T10:02:15.518Z,3.40
2023-03-29T10:05:04.221Z,3.03
2023-03-29T10:07:54.790Z,2.90
2023-03-29T10:10:50.390Z,3.35
2023-03-29T10:13:35.041Z,3.45
2023-03-29T10:16:33.668Z,3.47
2023-03-29T10:19:32.655Z,3.58
2023-03-29T10:22:22.119Z,3.15
2023-03-29T10:25:06.618Z,3.15
2023-03-29T10:27:57.029Z,3.35
2023-03-29T10:30:39.643Z,3.13
2023-03-29T10:33:24.210Z,3.92
2023-03-29T10:36:12.595Z,2.97
2023-03-29T10:38:53.036Z,3.08
2023-03-29T10:41:42.000Z,3.22
2023-03-29T10:44:37.875Z,2.75
2023-03-29T10:47:37.815Z,2.73
2023-03-29T10:50:20.901Z,2.60
2023-03-29T10:53:06.182Z,2.60
2023-03-29T10:56:20.133Z,3.30
2023-03-29T10:59:44.777Z,2.78
2023-03-29T11:02:51.391Z,3.15
2023-03-29T11:05:38.374Z,3.03
2023-03-29T11:08:31.603Z,2.90
2023-03-29T11:11:25.456Z,3.83
2023-03-29T11:14:28.168Z,3.15
2023-03-29T11:17:25.612Z,3.88
2023-03-29T11:20:40.366Z,3.38
2023-03-29T11:23:36.377Z,3.10
2023-03-29T11:26:49.867Z,2.63
2023-03-29T11:29:47.441Z,2.90
2023-03-29T11:32:42.133Z,3.33
2023-03-29T11:35:39.665Z,3.05
2023-03-29T11:38:45.337Z,3.63
2023-03-29T11:41:37.342Z,2.92
2023-03-29T11:44:38.875Z,3.40
2023-03-29T11:47:37.374Z,2.85
2023-03-29T11:50:58.121Z,3.15
2023-03-29T11:54:22.597Z,3.72
2023-03-29T11:57:11.650Z,3.30
2023-03-29T11:59:59.167Z,3.47
2023-03-29T12:02:42.972Z,3.67
2023-03-29T12:05:45.081Z,3.58
2023-03-29T12:08:31.680Z,3.88
2023-03-29T12:11:23.668Z,4.30
2023-03-29T12:14:16.268Z,3.60
2023-03-29T12:17:23.284Z,3.40
2023-03-29T12:20:31.840Z,3.88
2023-03-29T12:23:13.977Z,3.15
2023-03-29T12:26:09.113Z,3.65
2023-03-29T12:28:57.407Z,3.42
2023-03-29T12:31:50.307Z,3.97
2023-03-29T12:35:02.153Z,3.97
2023-03-29T12:38:09.823Z,3.30
2023-03-29T12:41:40.623Z,3.35
2023-03-29T12:44:38.713Z,3.40
2023-03-29T12:47:47.740Z,3.95
2023-03-29T12:50:41.067Z,3.50
2023-03-29T12:53:32.480Z,3.83
2023-03-29T12:56:14.004Z,3.92
2023-03-29T12:58:56.782Z,3.50
2023-03-29T13:01:37.978Z,4.28
2023-03-29T13:05:10.686Z,3.85
2023-03-29T13:08:03.024Z,3.83
2023-03-29T13:13:37.037Z,3.25
2023-03-29T13:16:35.789Z,3.65
2023-03-29T13:19:20.550Z,3.30
2023-03-29T13:22:38.871Z,4.10
2023-03-29T13:25:32.769Z,3.25
2023-03-29T13:28:28.584Z,3.72
2023-03-29T13:31:35.599Z,3.28
2023-03-29T13:34:26.050Z,3.25
2023-03-29T13:37:32.245Z,3.40
2023-03-29T13:40:28.387Z,3.83
2023-03-29T13:43:32.843Z,3.13
2023-03-29T13:46:24.174Z,3.63
2023-03-29T13:49:27.248Z,3.80
2023-03-29T13:52:18.161Z,3.78
2023-03-29T13:55:22.092Z,3.35
2023-03-29T13:58:07.849Z,2.85
2023-03-29T14:01:24.002Z,3.92
2023-03-29T14:04:10.592Z,3.33
2023-03-29T14:06:58.253Z,4.53
2023-03-29T14:09:43.508Z,3.58
2023-03-29T14:12:33.470Z,4.20
2023-03-29T14:15:24.309Z,3.63
2023-03-29T14:18:08.114Z,3.60
2023-03-29T14:20:49.832Z,3.53
2023-03-29T14:23:32.564Z,3.65
2023-03-29T14:26:34.597Z,3.65
2023-03-29T14:29:25.051Z,3.80
2023-03-29T14:32:18.583Z,3.47
2023-03-29T14:34:58.615Z,3.78
2023-03-29T14:37:44.872Z,4.05
2023-03-29T14:40:28.121Z,3.83
2023-03-29T14:43:08.850Z,3.92
2023-03-29T14:46:05.705Z,3.90
2023-03-29T14:48:42.740Z,3.40
2023-03-29T14:51:29.617Z,3.85
2023-03-29T14:54:22.332Z,3.95
2023-03-29T14:57:21.207Z,3.42
2023-03-29T15:00:53.844Z,3.42
2023-03-29T15:03:54.554Z,3.90
2023-03-29T15:06:50.846Z,4.00
2023-03-29T15:09:38.797Z,4.05
2023-03-29T15:12:24.199Z,4.80
2023-03-29T15:15:07.825Z,4.20
2023-03-29T15:17:53.006Z,4.15
2023-03-29T15:20:35.708Z,3.97
2023-03-29T15:23:37.628Z,4.63
2023-03-29T15:26:27.596Z,4.45
2023-03-29T15:29:26.006Z,3.60
2023-03-29T15:32:18.080Z,3.95
2023-03-29T15:35:07.915Z,3.75
2023-03-29T15:37:57.100Z,3.65
2023-03-29T15:40:48.445Z,3.85
2023-03-29T15:43:37.887Z,5.20
2023-03-29T15:46:21.776Z,7.25
2023-03-29T15:49:05.660Z,4.65
2023-03-29T15:51:49.447Z,3.47
2023-03-29T15:54:32.333Z,3.60
2023-03-29T15:57:24.277Z,4.72
2023-03-29T16:00:10.673Z,6.82
2023-03-29T16:02:53.815Z,5.50
2023-03-29T16:05:38.322Z,6.20
2023-03-29T16:08:15.704Z,4.47
2023-03-29T16:10:51.160Z,5.53
2023-03-29T16:13:37.579Z,4.80
2023-03-29T16:16:17.054Z,5.65
2023-03-29T16:18:59.604Z,4.35
2023-03-29T16:21:35.515Z,4.45
2023-03-29T16:24:25.393Z,4.78
2023-03-29T16:27:20.917Z,5.28
2023-03-29T16:29:59.046Z,4.40
2023-03-29T16:32:58.693Z,4.68
2023-03-29T16:35:40.631Z,4.47
2023-03-29T16:38:24.515Z,4.47
2023-03-29T16:41:06.986Z,4.60
2023-03-29T16:43:47.912Z,5.07
2023-03-29T16:46:31.561Z,4.90
2023-03-29T16:49:27.475Z,5.53
2023-03-29T16:52:10.767Z,5.53
2023-03-29T16:54:52.635Z,5.63
2023-03-29T16:57:53.024Z,6.45
2023-03-29T17:00:33.432Z,6.60
2023-03-29T17:03:11.302Z,5.85
2023-03-29T17:05:59.086Z,5.50
2023-03-29T17:08:40.085Z,6.07
2023-03-29T17:11:24.733Z,5.68
2023-03-29T17:14:03.077Z,6.20
2023-03-29T17:16:46.504Z,7.15
2023-03-29T17:19:24.245Z,7.25
2023-03-29T17:22:21.906Z,8.00
2023-03-29T17:25:10.779Z,7.13
2023-03-29T17:27:55.581Z,6.85
2023-03-29T17:30:34.503Z,5.70
2023-03-29T17:33:20.388Z,6.07
2023-03-29T17:36:04.242Z,5.93
2023-03-29T17:38:45.926Z,6.03
2023-03-29T17:41:31.341Z,5.65
2023-03-29T17:44:07.116Z,5.57
2023-03-29T17:46:56.437Z,5.93
2023-03-29T17:49:37.244Z,6.45
2023-03-29T17:52:19.472Z,6.38
2023-03-29T17:55:03.225Z,7.07
2023-03-29T17:57:48.151Z,6.50
2023-03-29T18:00:31.329Z,6.72
2023-03-29T18:03:12.289Z,6.72
2023-03-29T18:05:57.816Z,6.78
2023-03-29T18:08:50.776Z,7.75
2023-03-29T18:11:33.287Z,8.25
2023-03-29T18:14:13.596Z,9.77
2023-03-29T18:16:57.816Z,8.65
2023-03-29T18:19:56.417Z,9.43
2023-03-29T18:22:38.648Z,9.07
2023-03-29T18:25:15.834Z,9.05
2023-03-29T18:27:59.639Z,9.00
2023-03-29T18:30:46.333Z,9.48
2023-03-29T18:33:33.204Z,8.82
2023-03-29T18:36:32.485Z,10.00
2023-03-29T18:39:09.555Z,10.35
2023-03-29T18:41:57.513Z,9.65
2023-03-29T18:44:43.933Z,9.13
2023-03-29T18:47:39.304Z,10.25
2023-03-29T18:50:20.130Z,11.60
2023-03-29T18:53:04.042Z,11.82
2023-03-29T18:55:44.956Z,19.60
2023-03-29T18:58:28.854Z,36.83
2023-03-29T19:01:14.415Z,17.92
2023-03-29T19:03:58.016Z,12.73
2023-03-29T19:06:43.847Z,14.63
2023-03-29T19:09:24.248Z,13.80
2023-03-29T19:11:59.097Z,14.95
2023-03-29T19:14:39.661Z,13.70
2023-03-29T19:17:20.168Z,11.27
2023-03-29T19:19:58.577Z,10.90
2023-03-29T19:22:45.908Z,15.60
2023-03-29T19:25:26.290Z,15.68
2023-03-29T19:28:10.032Z,14.70
2023-03-29T19:30:49.222Z,13.05
2023-03-29T19:33:27.020Z,11.73
2023-03-29T19:36:07.796Z,11.52
2023-03-29T19:38:50.246Z,9.32
2023-03-29T19:41:33.082Z,11.32
2023-03-29T19:44:18.854Z,11.98
2023-03-29T19:47:08.689Z,11.88
2023-03-29T19:49:52.184Z,11.82
2023-03-29T19:52:37.893Z,11.05
2023-03-29T19:55:23.954Z,11.55
2023-03-29T20:00:50.803Z,10.80
2023-03-29T20:03:35.669Z,10.15
2023-03-29T20:06:12.928Z,10.25
2023-03-29T20:08:56.127Z,10.30
2023-03-29T20:11:36.902Z,11.70
2023-03-29T20:14:28.320Z,11.48
2023-03-29T20:17:11.549Z,10.75
2023-03-29T20:19:49.530Z,10.95
2023-03-29T20:22:32.873Z,11.07
2023-03-29T20:25:16.114Z,10.27
2023-03-29T20:27:53.654Z,12.38
2023-03-29T20:30:37.404Z,10.70
2023-03-29T20:33:23.871Z,10.18
2023-03-29T20:36:07.842Z,9.77
2023-03-29T20:38:47.909Z,10.18
2023-03-29T20:41:28.696Z,9.00
2023-03-29T20:44:11.919Z,8.80
2023-03-29T20:47:05.036Z,6.78
2023-03-29T20:49:42.735Z,7.80
2023-03-29T20:52:35.059Z,9.15
2023-03-29T20:55:22.380Z,8.85
2023-03-29T20:58:09.087Z,11.45
2023-03-29T21:00:48.514Z,10.52
2023-03-29T21:03:27.594Z,11.45
2023-03-29T21:06:14.128Z,11.23
2023-03-29T21:09:06.298Z,13.57
2023-03-29T21:11:44.163Z,13.43
2023-03-29T21:14:30.429Z,14.60
2023-03-29T21:17:07.528Z,16.23
2023-03-29T21:20:04.060Z,16.20
2023-03-29T21:22:42.802Z,18.80
2023-03-29T21:25:22.632Z,16.77
2023-03-29T21:28:00.440Z,17.27
2023-03-29T21:30:38.542Z,17.20
2023-03-29T21:33:16.907Z,16.52
2023-03-29T21:35:57.982Z,17.90
2023-03-29T21:38:38.717Z,18.83
2023-03-29T21:41:25.696Z,18.70
2023-03-29T21:44:06.415Z,19.17
2023-03-29T21:46:51.960Z,18.48
2023-03-29T21:49:33.017Z,17.80
2023-03-29T21:52:10.782Z,17.20
2023-03-29T21:54:52.213Z,15.43
2023-03-29T22:00:18.844Z,14.82
2023-03-29T22:02:59.064Z,14.73
2023-03-29T22:05:39.858Z,15.63
2023-03-29T22:08:25.566Z,15.27
2023-03-29T22:11:13.066Z,15.35
2023-03-29T22:14:10.998Z,17.30
2023-03-29T22:16:51.689Z,16.13
2023-03-29T22:19:30.401Z,18.92
2023-03-29T22:22:17.656Z,20.63
2023-03-29T22:25:04.405Z,20.52
2023-03-29T22:27:44.896Z,21.70
2023-03-29T22:30:29.202Z,21.05
2023-03-29T22:33:07.346Z,18.90
2023-03-29T22:35:51.671Z,18.50
2023-03-29T22:38:28.938Z,17.00
2023-03-29T22:41:19.193Z,16.92
2023-03-29T22:43:57.492Z,18.80
2023-03-29T22:46:38.677Z,16.27
2023-03-29T22:49:23.082Z,16.60
2023-03-29T22:52:09.421Z,16.23
2023-03-29T22:57:36.715Z,16.63
2023-03-29T23:00:26.373Z,15.55
2023-03-29T23:03:07.099Z,17.30
2023-03-29T23:05:55.258Z,18.73
2023-03-29T23:08:34.433Z,20.27
2023-03-29T23:11:15.134Z,18.40
2023-03-29T23:13:57.504Z,18.77
2023-03-29T23:16:40.737Z,20.45
2023-03-29T23:19:22.185Z,19.23
2023-03-29T23:21:57.782Z,21.52
2023-03-29T23:24:46.289Z,19.70
2023-03-29T23:27:27.628Z,19.80
2023-03-29T23:30:10.684Z,18.80
2023-03-29T23:32:54.029Z,18.30
2023-03-29T23:35:39.368Z,18.95
2023-03-29T23:38:17.669Z,18.75
2023-03-29T23:41:11.053Z,17.60
2023-03-29T23:43:52.378Z,17.27
2023-03-29T23:46:33.139Z,16.73
2023-03-29T23:49:13.903Z,16.90
2023-03-29T23:52:00.262Z,15.50
2023-03-29T23:54:46.254Z,15.85
2023-03-29T23:57:29.634Z,17.00
